createdAt,value
2019-02-27T08:49:31.906Z,14.73
2019-02-27T08:52:02.711Z,14.20
2019-02-27T08:54:33.161Z,17.53
2019-02-27T08:57:03.669Z,16.03
2019-02-27T08:59:37.002Z,22.03
2019-02-27T09:02:09.194Z,23.20
2019-02-27T09:04:39.657Z,20.47
2019-02-27T09:07:10.342Z,26.93
2019-02-27T09:09:40.601Z,22.50
2019-02-27T09:12:13.084Z,19.13
2019-02-27T09:14:46.166Z,27.77
2019-02-27T09:17:18.731Z,22.80
2019-02-27T09:19:49.676Z,31.00
2019-02-27T09:22:21.127Z,23.63
2019-02-27T09:24:52.384Z,23.20
2019-02-27T09:27:22.373Z,22.33
2019-02-27T09:29:54.867Z,25.43
2019-02-27T09:32:25.092Z,16.67
2019-02-27T09:34:57.058Z,24.53
2019-02-27T09:37:27.562Z,22.00
2019-02-27T09:39:57.663Z,21.30
2019-02-27T09:42:28.543Z,23.07
2019-02-27T09:44:58.731Z,19.63
2019-02-27T09:47:28.304Z,23.93
2019-02-27T09:50:02.680Z,23.53
2019-02-27T09:52:32.290Z,24.90
2019-02-27T09:55:02.348Z,19.30
2019-02-27T09:57:32.886Z,23.97
2019-02-27T10:00:03.716Z,23.40
2019-02-27T10:02:37.473Z,21.33
2019-02-27T10:05:08.435Z,18.90
2019-02-27T10:07:38.918Z,14.97
2019-02-27T10:10:11.263Z,17.03
2019-02-27T10:12:42.343Z,14.07
2019-02-27T10:15:13.475Z,15.47
2019-02-27T10:17:44.284Z,14.17
2019-02-27T10:20:15.733Z,12.27
2019-02-27T10:22:45.854Z,18.63
2019-02-27T10:25:16.619Z,12.10
2019-02-27T10:27:47.326Z,11.37
2019-02-27T10:30:17.169Z,17.23
2019-02-27T10:32:47.556Z,15.70
2019-02-27T10:35:18.228Z,15.93
2019-02-27T10:37:50.775Z,13.67
2019-02-27T10:40:21.604Z,16.17
2019-02-27T10:42:51.767Z,16.23
2019-02-27T10:45:22.875Z,15.17
2019-02-27T10:47:54.733Z,16.00
2019-02-27T10:50:25.006Z,15.23
2019-02-27T10:52:55.108Z,25.60
2019-02-27T10:55:26.850Z,19.80
2019-02-27T10:57:57.509Z,22.40
2019-02-27T11:00:30.093Z,22.00
2019-02-27T11:03:02.567Z,25.10
2019-02-27T11:05:34.035Z,23.90
2019-02-27T11:08:05.559Z,33.83
2019-02-27T11:10:37.607Z,25.67
2019-02-27T11:13:10.112Z,24.73
2019-02-27T11:15:44.726Z,24.43
2019-02-27T11:18:15.515Z,17.03
2019-02-27T11:20:46.883Z,14.03
2019-02-27T11:23:17.817Z,13.77
2019-02-27T11:25:48.259Z,18.80
2019-02-27T11:28:22.194Z,18.77
2019-02-27T11:30:53.374Z,17.20
2019-02-27T11:33:25.996Z,15.07
2019-02-27T11:35:56.788Z,15.83
2019-02-27T11:38:31.169Z,18.53
2019-02-27T11:41:02.202Z,14.93
2019-02-27T11:43:32.603Z,24.83
2019-02-27T11:46:03.991Z,13.33
2019-02-27T11:48:34.184Z,11.00
2019-02-27T11:51:05.036Z,12.13
2019-02-27T11:53:36.541Z,11.73
2019-02-27T11:56:10.126Z,12.80
2019-02-27T11:58:40.726Z,14.40
2019-02-27T12:01:12.131Z,9.57
2019-02-27T12:03:45.657Z,12.60
2019-02-27T12:06:14.958Z,13.67
2019-02-27T12:08:45.884Z,14.80
2019-02-27T12:11:16.474Z,13.27
2019-02-27T12:13:46.756Z,13.63
2019-02-27T12:16:18.320Z,15.87
2019-02-27T12:18:51.110Z,14.30
2019-02-27T12:21:21.845Z,14.60
2019-02-27T12:23:51.805Z,9.87
2019-02-27T12:26:22.807Z,11.63
2019-02-27T12:28:53.670Z,14.60
2019-02-27T12:31:24.202Z,8.77
2019-02-27T12:33:54.457Z,8.67
2019-02-27T12:36:24.698Z,9.73
2019-02-27T12:38:54.782Z,10.23
2019-02-27T12:41:25.372Z,9.47
2019-02-27T12:43:56.292Z,11.03
2019-02-27T12:46:31.885Z,7.40
2019-02-27T12:49:01.022Z,11.43
2019-02-27T12:51:31.602Z,7.50
2019-02-27T12:54:01.897Z,8.43
2019-02-27T12:56:32.471Z,9.43
2019-02-27T12:59:04.930Z,6.23
2019-02-27T13:01:34.866Z,7.37
2019-02-27T13:04:04.744Z,8.60
2019-02-27T13:06:37.347Z,9.53
2019-02-27T13:09:09.565Z,10.23
2019-02-27T13:11:41.652Z,7.93
2019-02-27T13:14:12.701Z,8.97
2019-02-27T13:16:42.688Z,12.83
2019-02-27T13:19:14.056Z,8.97
2019-02-27T13:21:48.068Z,10.63
2019-02-27T13:24:18.854Z,7.13
2019-02-27T13:26:51.522Z,9.50
2019-02-27T13:29:21.579Z,6.37
2019-02-27T13:31:52.159Z,7.93
2019-02-27T13:34:22.286Z,8.77
2019-02-27T13:36:53.415Z,13.73
2019-02-27T13:39:25.605Z,10.07
2019-02-27T13:41:56.141Z,7.90
2019-02-27T13:44:28.572Z,13.37
2019-02-27T13:47:00.986Z,11.53
2019-02-27T13:49:33.301Z,11.00
2019-02-27T13:52:21.653Z,12.27
2019-02-27T13:54:47.778Z,18.07
2019-02-27T13:57:19.584Z,12.90
2019-02-27T14:02:41.277Z,15.60
2019-02-27T14:05:11.890Z,10.70
2019-02-27T14:07:45.170Z,11.83
2019-02-27T14:10:17.512Z,14.27
2019-02-27T14:12:49.383Z,10.13
2019-02-27T14:15:20.199Z,9.90
2019-02-27T14:17:49.933Z,15.27
2019-02-27T14:20:27.009Z,11.53
2019-02-27T14:22:57.932Z,11.17
2019-02-27T14:25:32.350Z,12.80
2019-02-27T14:28:00.650Z,10.83
2019-02-27T14:30:36.609Z,12.93
2019-02-27T14:33:07.650Z,16.37
2019-02-27T14:35:38.414Z,15.03
2019-02-27T14:38:10.318Z,13.47
2019-02-27T14:40:42.399Z,12.27
2019-02-27T14:43:12.155Z,13.97
2019-02-27T14:45:44.321Z,16.30
2019-02-27T14:48:14.493Z,14.77
2019-02-27T14:50:45.808Z,15.07
2019-02-27T14:53:18.929Z,18.63
2019-02-27T14:55:51.604Z,16.10
2019-02-27T14:58:24.082Z,14.00
2019-02-27T15:00:55.100Z,20.43
2019-02-27T15:03:29.244Z,20.00
2019-02-27T15:05:57.461Z,18.63
2019-02-27T15:08:28.015Z,17.33
2019-02-27T15:11:02.150Z,14.23
2019-02-27T15:13:33.067Z,24.67
2019-02-27T15:16:03.471Z,18.10
2019-02-27T15:18:34.158Z,22.33
2019-02-27T15:21:04.279Z,19.30
2019-02-27T15:23:33.882Z,18.53
2019-02-27T15:26:06.212Z,22.50
2019-02-27T15:28:36.231Z,24.13
2019-02-27T15:31:06.204Z,22.03
2019-02-27T15:33:39.057Z,22.03
2019-02-27T15:36:08.698Z,22.00
2019-02-27T15:38:38.307Z,24.40
2019-02-27T15:41:07.875Z,22.60
2019-02-27T15:43:37.791Z,21.77
2019-02-27T15:46:07.644Z,22.63
2019-02-27T15:48:40.926Z,27.23
2019-02-27T15:51:11.424Z,23.20
2019-02-27T15:53:41.688Z,20.90
2019-02-27T15:56:11.983Z,22.53
2019-02-27T15:58:42.063Z,23.10
2019-02-27T16:01:15.288Z,22.70
2019-02-27T16:03:46.735Z,23.83
2019-02-27T16:06:16.962Z,25.40
2019-02-27T16:08:47.292Z,18.90
2019-02-27T16:11:17.354Z,21.60
2019-02-27T16:13:47.409Z,21.87
2019-02-27T16:16:22.415Z,24.13
2019-02-27T16:18:49.712Z,23.23
2019-02-27T16:21:20.995Z,24.87
2019-02-27T16:23:52.259Z,22.50
2019-02-27T16:26:27.018Z,24.00
2019-02-27T16:28:53.816Z,24.87
2019-02-27T16:31:23.720Z,23.00
2019-02-27T16:33:55.544Z,23.03
2019-02-27T16:36:25.477Z,26.43
2019-02-27T16:38:56.101Z,30.97
2019-02-27T16:41:28.971Z,21.53
2019-02-27T16:43:57.941Z,22.43
2019-02-27T16:46:27.880Z,24.80
2019-02-27T16:48:58.537Z,27.13
2019-02-27T16:51:31.193Z,26.90
2019-02-27T16:54:00.084Z,24.97
2019-02-27T16:56:30.324Z,27.37
2019-02-27T16:59:01.188Z,24.67
2019-02-27T17:01:30.839Z,25.27
2019-02-27T17:04:01.086Z,22.97
2019-02-27T17:06:30.674Z,23.77
2019-02-27T17:09:00.501Z,29.50
2019-02-27T17:11:32.531Z,21.23
2019-02-27T17:14:02.174Z,22.63
2019-02-27T17:16:32.911Z,22.80
2019-02-27T17:19:02.833Z,24.03
2019-02-27T17:21:32.690Z,25.77
2019-02-27T17:24:02.255Z,26.10
2019-02-27T17:26:35.267Z,24.00
2019-02-27T17:29:05.764Z,24.57
2019-02-27T17:31:36.126Z,21.73
2019-02-27T17:34:06.104Z,28.27
2019-02-27T17:36:36.529Z,21.17
2019-02-27T17:39:07.963Z,24.60
2019-02-27T17:41:38.277Z,25.73
2019-02-27T17:44:09.222Z,23.60
2019-02-27T17:46:39.678Z,26.50
2019-02-27T17:49:09.181Z,24.73
2019-02-27T17:51:41.041Z,21.97
2019-02-27T17:54:11.470Z,25.53
2019-02-27T17:56:41.724Z,26.23
2019-02-27T17:59:11.313Z,28.27
2019-02-27T18:01:42.935Z,30.47
2019-02-27T18:04:14.568Z,32.90
2019-02-27T18:06:44.357Z,31.73
2019-02-27T18:09:14.157Z,31.10
2019-02-27T18:11:43.739Z,36.67
2019-02-27T18:14:13.321Z,28.10
2019-02-27T18:16:43.677Z,29.00
2019-02-27T18:19:16.742Z,33.47
2019-02-27T18:21:45.663Z,30.60
2019-02-27T18:24:15.670Z,31.53
2019-02-27T18:26:51.265Z,41.37
2019-02-27T18:29:22.472Z,28.70
2019-02-27T18:31:52.037Z,37.27
2019-02-27T18:34:23.635Z,36.77
2019-02-27T18:36:53.812Z,34.63
2019-02-27T18:39:25.631Z,31.33
2019-02-27T18:41:56.009Z,41.53
2019-02-27T18:44:25.504Z,40.20
2019-02-27T18:46:56.231Z,38.70
2019-02-27T18:49:26.907Z,41.63
2019-02-27T18:51:56.544Z,43.27
2019-02-27T18:54:26.913Z,41.17
2019-02-27T18:56:56.957Z,40.70
2019-02-27T18:59:30.352Z,41.70
2019-02-27T19:02:00.293Z,38.60
2019-02-27T19:04:35.004Z,47.90
2019-02-27T19:07:02.686Z,44.17
2019-02-27T19:09:33.229Z,46.13
2019-02-27T19:12:03.673Z,42.90
2019-02-27T19:14:36.696Z,55.07
2019-02-27T19:17:07.705Z,42.97
2019-02-27T19:19:37.562Z,50.83
2019-02-27T19:22:11.052Z,50.13
2019-02-27T19:24:39.574Z,54.63
2019-02-27T19:27:09.687Z,51.90
2019-02-27T19:29:41.601Z,53.50
2019-02-27T19:32:14.378Z,55.33
2019-02-27T19:34:47.958Z,55.90
2019-02-27T19:37:16.901Z,55.30
2019-02-27T19:39:46.822Z,55.40
2019-02-27T19:42:17.245Z,53.50
2019-02-27T19:44:47.497Z,58.73
2019-02-27T19:47:18.472Z,57.33
2019-02-27T19:49:49.189Z,63.53
2019-02-27T19:52:18.749Z,63.47
2019-02-27T19:54:51.792Z,63.13
2019-02-27T19:57:19.806Z,64.50
2019-02-27T19:59:49.416Z,70.10
2019-02-27T20:02:21.689Z,63.97
2019-02-27T20:04:52.110Z,69.70
2019-02-27T20:07:24.041Z,69.93
2019-02-27T20:09:54.502Z,77.93
2019-02-27T20:12:27.726Z,69.17
2019-02-27T20:14:58.120Z,82.50
2019-02-27T20:17:32.775Z,82.23
2019-02-27T20:20:04.093Z,80.70
2019-02-27T20:22:32.484Z,80.13
2019-02-27T20:25:02.432Z,70.30
2019-02-27T20:27:32.333Z,71.17
2019-02-27T20:30:02.328Z,65.60
2019-02-27T20:32:33.168Z,78.93
2019-02-27T20:35:04.277Z,79.90
2019-02-27T20:37:37.111Z,75.93
2019-02-27T20:40:07.929Z,79.33
2019-02-27T20:42:37.845Z,80.50
2019-02-27T20:45:11.458Z,74.87
2019-02-27T20:47:41.559Z,79.37
2019-02-27T20:50:20.882Z,81.50
2019-02-27T20:52:49.450Z,77.17
2019-02-27T20:55:19.533Z,74.37
2019-02-27T20:57:51.085Z,84.73
2019-02-27T21:00:21.793Z,77.60
2019-02-27T21:02:53.427Z,76.60
2019-02-27T21:05:25.673Z,77.37
2019-02-27T21:08:00.977Z,75.47
2019-02-27T21:10:27.390Z,87.80
2019-02-27T21:12:57.130Z,76.53
2019-02-27T21:15:32.502Z,84.40
2019-02-27T21:18:01.577Z,79.00
2019-02-27T21:20:33.119Z,84.87
2019-02-27T21:23:02.759Z,84.93
2019-02-27T21:25:32.722Z,86.77
2019-02-27T21:28:06.592Z,85.00
2019-02-27T21:30:35.386Z,90.53
2019-02-27T21:33:05.295Z,86.90
2019-02-27T21:35:35.558Z,79.80
2019-02-27T21:38:05.607Z,77.13
2019-02-27T21:40:36.151Z,90.23
2019-02-27T21:43:07.068Z,85.20
2019-02-27T21:45:38.427Z,83.23
2019-02-27T21:48:08.821Z,82.80
2019-02-27T21:50:40.011Z,86.83
2019-02-27T21:53:10.110Z,86.17
2019-02-27T21:55:39.691Z,84.73
2019-02-27T21:58:19.739Z,88.30
2019-02-27T22:00:41.630Z,84.20
2019-02-27T22:03:11.213Z,86.03
2019-02-27T22:05:43.004Z,83.53
2019-02-27T22:08:13.067Z,94.77
2019-02-27T22:10:42.892Z,89.67
2019-02-27T22:13:13.189Z,97.47
2019-02-27T22:15:44.702Z,85.47
2019-02-27T22:18:17.754Z,90.83
2019-02-27T22:20:48.021Z,97.17
2019-02-27T22:23:18.293Z,88.87
2019-02-27T22:25:48.721Z,84.53
2019-02-27T22:28:19.939Z,82.67
2019-02-27T22:30:49.734Z,98.60
2019-02-27T22:33:23.045Z,90.87
2019-02-27T22:35:51.122Z,97.20
2019-02-27T22:38:25.835Z,87.37
2019-02-27T22:40:52.202Z,89.10
2019-02-27T22:43:23.346Z,99.83
2019-02-27T22:45:53.011Z,92.47
2019-02-27T22:48:27.372Z,92.03
2019-02-27T22:50:54.406Z,94.10
2019-02-27T22:53:26.171Z,93.37
2019-02-27T22:55:55.947Z,93.63
2019-02-27T22:58:27.541Z,88.87
2019-02-27T23:01:08.815Z,81.93
2019-02-27T23:03:45.221Z,96.67
2019-02-27T23:06:15.127Z,86.83
2019-02-27T23:08:44.938Z,90.10
2019-02-27T23:11:15.230Z,85.67
2019-02-27T23:13:48.431Z,88.20
2019-02-27T23:16:19.569Z,85.00
2019-02-27T23:18:50.267Z,80.50
2019-02-27T23:21:19.750Z,88.73
2019-02-27T23:23:49.321Z,79.80
2019-02-27T23:26:20.150Z,92.07
2019-02-27T23:28:50.956Z,95.87
2019-02-27T23:31:23.422Z,87.20
2019-02-27T23:33:52.984Z,90.33
2019-02-27T23:36:22.876Z,89.93
2019-02-27T23:38:52.487Z,79.73
2019-02-27T23:41:24.658Z,84.17
2019-02-27T23:43:55.172Z,80.30
2019-02-27T23:46:25.330Z,82.83
2019-02-27T23:48:55.595Z,85.83
2019-02-27T23:51:25.492Z,83.07
2019-02-27T23:53:55.433Z,83.07
2019-02-27T23:56:24.938Z,80.17
2019-02-27T23:58:55.113Z,79.73
